Mare Frisium — PCBM — position and weather

sailwx.info

Track history (hours):
 
Tides and Currents Weather Stations Pressure Air Temp Water Temp Dewpoint Dewpoint Depression Visibility Wind Speed Wind Dir Waves Ship Positions

Mare Frisium (Netherlands)

Ship's website: http://www.tallship-company.com/mare-frisium-2/

Last reported at 2019-Jun-15 22:30 UTC. Time now 2019-Jun-15 22:35 UTC.
Position N 53°33' E 009°59'.

Length 50 m; draft 2.8 m.

Type: Sailing vessel. MMSI: 244596000.

Date/timePositionNaut miles runAvg speedWind from/ knotsBaromVisibWave heightAir tempDewpointWater temp
2019-Jun-15 22:30N 53°33' E 009°59'0 0.0
2019-Jun-15 22:00N 53°33' E 009°59'0 0.0
2019-Jun-15 21:30N 53°33' E 009°59'0 0.0
2019-Jun-15 21:00N 53°33' E 009°59'0 0.0
2019-Jun-15 20:30N 53°33' E 009°59'0 0.0
2019-Jun-15 20:00N 53°33' E 009°59'0 0.0
2019-Jun-15 19:30N 53°33' E 009°59'0 0.0
2019-Jun-15 19:00N 53°33' E 009°59'0 0.0
2019-Jun-15 18:30N 53°33' E 009°59'0 0.0
2019-Jun-15 18:00N 53°33' E 009°59'0 0.0
2019-Jun-15 17:30N 53°33' E 009°59'0 0.0
2019-Jun-15 17:00N 53°33' E 009°59'0 0.0
2019-Jun-15 16:30N 53°33' E 009°59'0 0.0
2019-Jun-15 16:00N 53°33' E 009°59'0 0.0
2019-Jun-15 15:30N 53°33' E 009°59'0 0.0
2019-Jun-15 15:00N 53°33' E 009°59'0 0.0
2019-Jun-15 14:30N 53°33' E 009°59'0 0.0
2019-Jun-15 14:00N 53°33' E 009°59'0 0.0
2019-Jun-15 13:30N 53°33' E 009°59'0 0.0
2019-Jun-15 13:00N 53°33' E 009°59'0 0.0
2019-Jun-15 12:30N 53°33' E 009°59'0 0.0
2019-Jun-15 12:00N 53°33' E 009°59'0 0.0
2019-Jun-15 11:30N 53°33' E 009°59'0 0.0
2019-Jun-15 11:00N 53°33' E 009°59'0 0.0
2019-Jun-15 10:30N 53°33' E 009°59'0 0.0
2019-Jun-15 10:00N 53°33' E 009°59'0 0.0
2019-Jun-15 09:30N 53°33' E 009°59'0 0.0
2019-Jun-15 09:00N 53°33' E 009°59'0 0.0
2019-Jun-15 08:30N 53°33' E 009°59'0 0.0
2019-Jun-15 08:00N 53°33' E 009°59'0 0.0
2019-Jun-15 07:30N 53°33' E 009°59'0 0.0
2019-Jun-15 07:00N 53°33' E 009°59'0 0.0
2019-Jun-15 06:30N 53°33' E 009°59'0 0.0
2019-Jun-15 06:00N 53°33' E 009°59'0 0.0
2019-Jun-15 05:30N 53°33' E 009°59'0 0.0
2019-Jun-15 05:00N 53°33' E 009°59'0 0.0
2019-Jun-15 04:30N 53°33' E 009°59'0 0.0
2019-Jun-15 04:00N 53°33' E 009°59'0 0.0
2019-Jun-15 03:30N 53°33' E 009°59'0 0.0
2019-Jun-15 03:00N 53°33' E 009°59'0 0.0
2019-Jun-15 02:30N 53°33' E 009°59'0 0.0
2019-Jun-15 02:00N 53°33' E 009°59'0 0.0
2019-Jun-15 01:30N 53°33' E 009°59'0 0.0
2019-Jun-15 01:00N 53°33' E 009°59'0 0.0
2019-Jun-15 00:30N 53°33' E 009°59'0 0.0
2019-Jun-15 00:00N 53°33' E 009°59'0 0.0
2019-Jun-14 23:30N 53°33' E 009°59'0 0.0
2019-Jun-14 23:00N 53°33' E 009°59'0 0.0
2019-Jun-14 22:30N 53°33' E 009°59'0 0.0
2019-Jun-14 22:00N 53°33' E 009°59'0 0.1
2019-Jun-14 21:31N 53°33' E 009°59'0 0.1
2019-Jun-14 21:00N 53°33' E 009°59'1 2.5
2019-Jun-14 20:30N 53°33' E 009°57'3 6.2
2019-Jun-14 20:00N 53°33' E 009°52'3 5.9
2019-Jun-14 19:30N 53°33' E 009°47'3 5.0
2019-Jun-14 19:00N 53°34' E 009°43'2 3.4
2019-Jun-14 18:30N 53°34' E 009°45'2 5.0
2019-Jun-14 18:00N 53°33' E 009°50'2 4.5
2019-Jun-14 17:30N 53°33' E 009°53'2 4.6
2019-Jun-14 17:00N 53°33' E 009°57'1 2.1
2019-Jun-14 16:30N 53°32' E 009°59'0 0.3
2019-Jun-14 16:00N 53°33' E 009°59'0 0.0
2019-Jun-14 15:31N 53°33' E 009°59'0 0.0
2019-Jun-14 15:00N 53°33' E 009°59'0 0.0
2019-Jun-14 14:31N 53°33' E 009°59'0 0.0
2019-Jun-14 14:01N 53°33' E 009°59'1 1.4
2019-Jun-14 13:30N 53°33' E 009°58'3 5.8
2019-Jun-14 13:00N 53°32' E 009°53'3 6.9
2019-Jun-14 12:30N 53°33' E 009°47'2 4.9
2019-Jun-14 12:00N 53°34' E 009°43'2 3.5
2019-Jun-14 11:30N 53°34' E 009°46'3 5.1
2019-Jun-14 11:00N 53°33' E 009°50'2 4.3
2019-Jun-14 10:30N 53°33' E 009°54'2 4.3
2019-Jun-14 10:00N 53°33' E 009°57'1 1.7
2019-Jun-14 09:30N 53°32' E 009°59'0 0.1
2019-Jun-14 09:00N 53°33' E 009°59'0 0.0
2019-Jun-14 08:30N 53°33' E 009°59'0 0.0
2019-Jun-14 08:00N 53°33' E 009°59'0 0.0
2019-Jun-14 07:30N 53°33' E 009°59'0 0.2
2019-Jun-14 07:00N 53°33' E 009°59'0 0.0
2019-Jun-14 06:30N 53°33' E 009°59'0 0.0
2019-Jun-14 06:00N 53°33' E 009°59'0 0.0
2019-Jun-14 05:30N 53°33' E 009°59'0 0.0
2019-Jun-14 05:00N 53°33' E 009°59'0 0.0
2019-Jun-14 04:30N 53°33' E 009°59'0 0.0
2019-Jun-14 04:00N 53°33' E 009°59'0 0.0
2019-Jun-14 03:30N 53°33' E 009°59'0 0.0
2019-Jun-14 03:00N 53°33' E 009°59'0 0.0
2019-Jun-14 02:30N 53°33' E 009°59'0 0.0
2019-Jun-14 02:00N 53°33' E 009°59'0 0.0
2019-Jun-14 01:30N 53°33' E 009°59'0 0.0
2019-Jun-14 01:00N 53°33' E 009°59'0 0.0
2019-Jun-14 00:30N 53°33' E 009°59'0 0.0
2019-Jun-14 00:00N 53°33' E 009°59'0 0.0
2019-Jun-13 23:30N 53°33' E 009°59'0 0.0
2019-Jun-13 23:00N 53°33' E 009°59'0 0.0
2019-Jun-13 22:30N 53°33' E 009°59'0 0.0
2019-Jun-13 22:00N 53°33' E 009°59'0 0.2
2019-Jun-13 21:31N 53°33' E 009°59'0 0.0
2019-Jun-13 21:01N 53°33' E 009°59'0 0.0
2019-Jun-13 20:31N 53°33' E 009°59'2 3.6
2019-Jun-13 20:01N 53°32' E 009°56'4 8.2
2019-Jun-13 19:31N 53°33' E 009°49'3 5.5
2019-Jun-13 19:01N 53°34' E 009°45'2 4.3
2019-Jun-13 18:30N 53°34' E 009°41'1 1.7
2019-Jun-13 18:00N 53°34' E 009°40'3 6.4
2019-Jun-13 17:31N 53°34' E 009°45'3 6.4
2019-Jun-13 17:01N 53°33' E 009°50'3 6.6
2019-Jun-13 16:31N 53°33' E 009°56'2 3.5
2019-Jun-13 15:59N 53°33' E 009°59'0 0.0
2019-Jun-13 15:29N 53°33' E 009°59'0 0.0
2019-Jun-13 14:59N 53°33' E 009°59'0 0.0
2019-Jun-13 14:29N 53°33' E 009°59'0 0.0
2019-Jun-13 13:59N 53°33' E 009°59'0 0.1
2019-Jun-13 13:29N 53°33' E 009°59'0 0.0
2019-Jun-13 12:59N 53°33' E 009°59'0 0.0
2019-Jun-13 12:29N 53°33' E 009°59'0 0.0
2019-Jun-13 11:59N 53°33' E 009°59'0 0.0
2019-Jun-13 11:29N 53°33' E 009°59'0 0.0
2019-Jun-13 10:59N 53°33' E 009°59'0 0.0
2019-Jun-13 10:29N 53°33' E 009°59'0 0.0
2019-Jun-13 09:59N 53°33' E 009°59'0 0.0
2019-Jun-13 09:29N 53°33' E 009°59'0 0.0
2019-Jun-13 08:59N 53°33' E 009°59'0 0.0
2019-Jun-13 08:29N 53°33' E 009°59'0 0.0
2019-Jun-13 07:59N 53°33' E 009°59'0 0.0
2019-Jun-13 07:29N 53°33' E 009°59'0 0.0
2019-Jun-13 06:59N 53°33' E 009°59'0 0.0
2019-Jun-13 06:29N 53°33' E 009°59'0 0.0
2019-Jun-13 05:59N 53°33' E 009°59'0 0.0
2019-Jun-13 05:29N 53°33' E 009°59'0 0.0
2019-Jun-13 04:59N 53°33' E 009°59'0 0.0
2019-Jun-13 04:29N 53°33' E 009°59'0 0.0
2019-Jun-13 03:59N 53°33' E 009°59'0 0.0
2019-Jun-13 03:29N 53°33' E 009°59'0 0.0
2019-Jun-13 02:59N 53°33' E 009°59'0 0.0
2019-Jun-13 02:29N 53°33' E 009°59'0 0.0
2019-Jun-13 01:59N 53°33' E 009°59'0 0.0
2019-Jun-13 01:29N 53°33' E 009°59'0 0.0
2019-Jun-13 00:59N 53°33' E 009°59'0 0.0
2019-Jun-13 00:29N 53°33' E 009°59'0 0.0
2019-Jun-12 23:59N 53°33' E 009°59'0 0.0
2019-Jun-12 23:29N 53°33' E 009°59'0 0.0
2019-Jun-12 22:59N 53°33' E 009°59'0 0.0
2019-Jun-12 22:29N 53°33' E 009°59'0 0.0
2019-Jun-12 21:59N 53°33' E 009°59'0 0.0
2019-Jun-12 21:29N 53°33' E 009°59'0 0.0
2019-Jun-12 20:59N 53°33' E 009°59'0 0.0
2019-Jun-12 20:29N 53°33' E 009°59'0 0.0
2019-Jun-12 19:59N 53°33' E 009°59'0 0.0
2019-Jun-12 19:29N 53°33' E 009°59'0 0.0
2019-Jun-12 18:59N 53°33' E 009°59'0 0.0
2019-Jun-12 18:29N 53°33' E 009°59'0 0.0
2019-Jun-12 17:59N 53°33' E 009°59'0 0.0
2019-Jun-12 17:29N 53°33' E 009°59'0 0.0
2019-Jun-12 16:59N 53°33' E 009°59'0 0.0
2019-Jun-12 16:29N 53°33' E 009°59'0 0.0
2019-Jun-12 15:59N 53°33' E 009°59'0 0.0
2019-Jun-12 15:29N 53°33' E 009°59'0 0.0
2019-Jun-12 14:59N 53°33' E 009°59'0 0.0
2019-Jun-12 14:29N 53°33' E 009°59'0 0.0
2019-Jun-12 13:59N 53°33' E 009°59'0 0.0
2019-Jun-12 13:29N 53°33' E 009°59'0 0.0
2019-Jun-12 12:59N 53°33' E 009°59'0 0.0
2019-Jun-12 12:29N 53°33' E 009°59'0 0.0
2019-Jun-12 11:59N 53°33' E 009°59'0 0.0
2019-Jun-12 11:29N 53°33' E 009°59'0 0.0
2019-Jun-12 10:59N 53°33' E 009°59'0 0.0
2019-Jun-12 10:29N 53°33' E 009°59'0 0.0
2019-Jun-12 09:59N 53°33' E 009°59'0 0.0
2019-Jun-12 09:29N 53°33' E 009°59'0 0.0
2019-Jun-12 08:59N 53°33' E 009°59'0 0.0
2019-Jun-12 08:26N 53°33' E 009°59'0 0.0
2019-Jun-12 07:59N 53°33' E 009°59'0 0.0
2019-Jun-12 07:29N 53°33' E 009°59'0 0.0
2019-Jun-12 06:59N 53°33' E 009°59'0 0.0
2019-Jun-12 06:29N 53°33' E 009°59'0 0.0
2019-Jun-12 05:59N 53°33' E 009°59'0 0.0
2019-Jun-12 05:28N 53°33' E 009°59'0 0.0
2019-Jun-12 04:58N 53°33' E 009°59'0 0.0
2019-Jun-12 04:28N 53°33' E 009°59'0 0.0
2019-Jun-12 03:58N 53°33' E 009°59'0 0.0
2019-Jun-12 03:28N 53°33' E 009°59'0 0.0
2019-Jun-12 02:58N 53°33' E 009°59'0 0.0
2019-Jun-12 02:28N 53°33' E 009°59'0 0.0
2019-Jun-12 01:28N 53°33' E 009°59'0 0.0
2019-Jun-12 00:58N 53°33' E 009°59'0 0.0
2019-Jun-12 00:28N 53°33' E 009°59'0 0.0
2019-Jun-11 23:58N 53°33' E 009°59'0 0.0
2019-Jun-11 23:28N 53°33' E 009°59'0 0.0
2019-Jun-11 22:58N 53°33' E 009°59'0 0.0
2019-Jun-11 22:28N 53°33' E 009°59'0 0.0
2019-Jun-11 21:58N 53°33' E 009°59'0 0.0
2019-Jun-11 21:28N 53°33' E 009°59'0 0.0
2019-Jun-11 20:58N 53°33' E 009°59'0 0.0
2019-Jun-11 20:28N 53°33' E 009°59'0 0.0
2019-Jun-11 19:58N 53°33' E 009°59'0 0.0
2019-Jun-11 19:28N 53°33' E 009°59'0 0.0
2019-Jun-11 18:58N 53°33' E 009°59'0 0.0
2019-Jun-11 18:28N 53°33' E 009°59'0 0.0
2019-Jun-11 17:58N 53°33' E 009°59'0 0.0
2019-Jun-11 17:28N 53°33' E 009°59'0 0.0
2019-Jun-11 16:58N 53°33' E 009°59'0 0.0
2019-Jun-11 16:28N 53°33' E 009°59'0 0.0
2019-Jun-11 15:58N 53°33' E 009°59'0 0.0
2019-Jun-11 15:28N 53°33' E 009°59'0 0.0
2019-Jun-11 14:58N 53°33' E 009°59'0 0.0
2019-Jun-11 14:28N 53°33' E 009°59'0 0.0
2019-Jun-11 13:58N 53°33' E 009°59'0 0.0
2019-Jun-11 13:28N 53°33' E 009°59'0 0.0
2019-Jun-11 12:58N 53°33' E 009°59'0 0.0
2019-Jun-11 12:28N 53°33' E 009°59'0 0.0
2019-Jun-11 11:58N 53°33' E 009°59'0 0.0
2019-Jun-11 11:28N 53°33' E 009°59'0 0.0
2019-Jun-11 10:58N 53°33' E 009°59'0 0.0
2019-Jun-11 10:28N 53°33' E 009°59'0 0.0
2019-Jun-11 09:58N 53°33' E 009°59'0 0.0
2019-Jun-11 09:28N 53°33' E 009°59'0 0.0
2019-Jun-11 08:58N 53°33' E 009°59'0 0.0
2019-Jun-11 08:28N 53°33' E 009°59'0 0.0
2019-Jun-11 07:58N 53°33' E 009°59'0 0.0
2019-Jun-11 07:28N 53°33' E 009°59'0 0.0
2019-Jun-11 06:58N 53°33' E 009°59'0 0.0
2019-Jun-11 06:28N 53°33' E 009°59'0 0.0
2019-Jun-11 05:58N 53°33' E 009°59'0 0.0
2019-Jun-11 05:28N 53°33' E 009°59'0 0.0
2019-Jun-11 04:58N 53°33' E 009°59'0 0.0
2019-Jun-11 04:28N 53°33' E 009°59'0 0.0
2019-Jun-11 03:58N 53°33' E 009°59'0 0.0
2019-Jun-11 03:28N 53°33' E 009°59'0 0.0
2019-Jun-11 02:58N 53°33' E 009°59'0 0.0
2019-Jun-11 02:28N 53°33' E 009°59'0 0.0
2019-Jun-11 01:58N 53°33' E 009°59'0 0.0
2019-Jun-11 01:28N 53°33' E 009°59'0 0.0
2019-Jun-11 00:58N 53°33' E 009°59'0 0.0
2019-Jun-11 00:28N 53°33' E 009°59'0 0.0
2019-Jun-10 23:58N 53°33' E 009°59'0 0.0
2019-Jun-10 23:28N 53°33' E 009°59'0 0.0
2019-Jun-10 22:58N 53°33' E 009°59'0 0.0
2019-Jun-10 22:28N 53°33' E 009°59'0 0.0
2019-Jun-10 21:58N 53°33' E 009°59'0 0.0
2019-Jun-10 21:28N 53°33' E 009°59'0 0.0
2019-Jun-10 20:58N 53°33' E 009°59'0 0.0
2019-Jun-10 20:28N 53°33' E 009°59'0 0.0
2019-Jun-10 19:58N 53°33' E 009°59'0 0.0
2019-Jun-10 19:28N 53°33' E 009°59'0 0.0
2019-Jun-10 18:58N 53°33' E 009°59'0 0.0
2019-Jun-10 18:28N 53°33' E 009°59'0 0.0
2019-Jun-10 17:58N 53°33' E 009°59'0 0.0
2019-Jun-10 17:28N 53°33' E 009°59'0 0.0
2019-Jun-10 16:58N 53°33' E 009°59'0 0.0
2019-Jun-10 16:28N 53°33' E 009°59'0 0.0
2019-Jun-10 15:58N 53°33' E 009°59'0 0.0
2019-Jun-10 15:28N 53°33' E 009°59'0 0.0
2019-Jun-10 14:58N 53°33' E 009°59'0 0.0
2019-Jun-10 14:28N 53°33' E 009°59'0 0.0
2019-Jun-10 13:58N 53°33' E 009°59'0 0.0
2019-Jun-10 13:30N 53°33' E 009°59'0 0.2
2019-Jun-10 13:00N 53°33' E 009°59'3 5.5
2019-Jun-10 12:30N 53°32' E 009°54'2 4.8
2019-Jun-10 12:00N 53°33' E 009°50'2 4.3
2019-Jun-10 11:30N 53°33' E 009°47'1 2.9
2019-Jun-10 11:00N 53°34' E 009°44'3 5.4
2019-Jun-10 10:30N 53°33' E 009°49'2 4.9
2019-Jun-10 10:00N 53°33' E 009°53'2 4.3
2019-Jun-10 09:30N 53°33' E 009°56'2 3.0
2019-Jun-10 08:58N 53°33' E 009°59'0 0.0
2019-Jun-10 08:25N 53°33' E 009°59'0 0.0
2019-Jun-10 07:58N 53°33' E 009°59'0 0.0
2019-Jun-10 07:28N 53°33' E 009°59'0 0.0
2019-Jun-10 06:58N 53°33' E 009°59'0 0.0
2019-Jun-10 06:28N 53°33' E 009°59'0 0.0
2019-Jun-10 05:58N 53°33' E 009°59'0 0.0
2019-Jun-10 05:28N 53°33' E 009°59'0 0.0
2019-Jun-10 04:58N 53°33' E 009°59'0 0.0
2019-Jun-10 04:28N 53°33' E 009°59'0 0.0
2019-Jun-10 03:58N 53°33' E 009°59'0 0.0
2019-Jun-10 03:28N 53°33' E 009°59'0 0.0
2019-Jun-10 02:58N 53°33' E 009°59'0 0.0
2019-Jun-10 02:28N 53°33' E 009°59'0 0.0
2019-Jun-10 01:58N 53°33' E 009°59'0 0.0
2019-Jun-10 01:28N 53°33' E 009°59'0 0.0
2019-Jun-10 00:58N 53°33' E 009°59'0 0.0
2019-Jun-10 00:28N 53°33' E 009°59'0 0.0
2019-Jun-09 23:58N 53°33' E 009°59'0 0.0
2019-Jun-09 23:28N 53°33' E 009°59'0 0.0
2019-Jun-09 22:58N 53°33' E 009°59'0 0.0
2019-Jun-09 22:28N 53°33' E 009°59'0 0.0
2019-Jun-09 21:58N 53°33' E 009°59'1 2.1
2019-Jun-09 21:30N 53°33' E 009°57'3 5.6
2019-Jun-09 21:00N 53°33' E 009°53'3 5.5
2019-Jun-09 20:30N 53°33' E 009°48'3 6.0
2019-Jun-09 20:00N 53°34' E 009°43'3 6.9
2019-Jun-09 19:30N 53°35' E 009°38'1 1.5
2019-Jun-09 19:00N 53°34' E 009°39'2 4.2
2019-Jun-09 18:30N 53°34' E 009°42'2 4.1
2019-Jun-09 18:00N 53°34' E 009°46'2 3.8
2019-Jun-09 17:30N 53°33' E 009°49'2 3.8
2019-Jun-09 17:00N 53°33' E 009°52'2 3.6
2019-Jun-09 16:30N 53°33' E 009°55'2 4.4
2019-Jun-09 16:00N 53°33' E 009°58'0 0.5
2019-Jun-09 15:28N 53°33' E 009°59'0 0.0
2019-Jun-09 14:58N 53°33' E 009°59'0 0.0
2019-Jun-09 14:28N 53°33' E 009°59'0 0.0
2019-Jun-09 13:58N 53°33' E 009°59'0 0.0
2019-Jun-09 13:28N 53°33' E 009°59'0 0.0
2019-Jun-09 12:58N 53°33' E 009°59'1 3.1
2019-Jun-09 12:30N 53°32' E 009°56'2 5.0
2019-Jun-09 12:00N 53°33' E 009°52'2 4.3
2019-Jun-09 11:30N 53°33' E 009°49'2 4.2
2019-Jun-09 11:00N 53°34' E 009°45'2 3.6
2019-Jun-09 10:31N 53°34' E 009°42'3 5.2
2019-Jun-09 10:00N 53°34' E 009°47'4 8.0
2019-Jun-09 09:30N 53°33' E 009°53'3 6.7
2019-Jun-09 09:01N 53°33' E 009°59'0 0.1
2019-Jun-09 08:28N 53°33' E 009°59'0 0.0
2019-Jun-09 07:58N 53°33' E 009°59'0 0.0
2019-Jun-09 07:28N 53°33' E 009°59'0 0.0
2019-Jun-09 06:58N 53°33' E 009°59'0 0.0
2019-Jun-09 06:28N 53°33' E 009°59'0 0.1
2019-Jun-09 05:58N 53°33' E 009°59'0 0.0
2019-Jun-09 05:28N 53°33' E 009°59'0 0.0
2019-Jun-09 04:58N 53°33' E 009°59'0 0.0
2019-Jun-09 03:58N 53°33' E 009°59'0 0.0
2019-Jun-09 03:28N 53°33' E 009°59'0 0.0
2019-Jun-09 02:58N 53°33' E 009°59'0 0.0
2019-Jun-09 02:28N 53°33' E 009°59'0 0.0
2019-Jun-09 01:58N 53°33' E 009°59'0 0.0
2019-Jun-09 01:28N 53°33' E 009°59'0 0.0
2019-Jun-09 00:58N 53°33' E 009°59'0 0.0
2019-Jun-09 00:28N 53°33' E 009°59'0 0.0
2019-Jun-08 23:58N 53°33' E 009°59'0 0.0
2019-Jun-08 23:28N 53°33' E 009°59'0 0.0
2019-Jun-08 22:58N 53°33' E 009°59'0 0.0
2019-Jun-08 22:28N 53°33' E 009°59'0 0.0
2019-Jun-08 21:58N 53°33' E 009°59'0 0.0
2019-Jun-08 21:28N 53°33' E 009°59'0 0.0
2019-Jun-08 20:58N 53°33' E 009°59'0 0.0
2019-Jun-08 20:28N 53°33' E 009°59'0 0.0
2019-Jun-08 19:58N 53°33' E 009°59'0 0.0
2019-Jun-08 19:28N 53°33' E 009°59'0 0.0
2019-Jun-08 19:00N 53°33' E 009°59'0 0.0
2019-Jun-08 18:31N 53°33' E 009°59'0 0.0
2019-Jun-08 18:01N 53°33' E 009°59'0 0.0
2019-Jun-08 17:31N 53°33' E 009°59'0 0.0
2019-Jun-08 17:01N 53°33' E 009°59'0 0.0
2019-Jun-08 16:30N 53°33' E 009°59'0 0.0
2019-Jun-08 16:00N 53°33' E 009°59'0 0.0
2019-Jun-08 15:30N 53°33' E 009°59'0 0.0
2019-Jun-08 15:00N 53°33' E 009°59'0 0.0
2019-Jun-08 14:31N 53°33' E 009°59'0 0.0
2019-Jun-08 14:01N 53°33' E 009°59'0 0.0
2019-Jun-08 13:31N 53°33' E 009°59'0 0.3
2019-Jun-08 13:00N 53°33' E 009°59'1 1.7
2019-Jun-08 12:30N 53°33' E 009°58'3 5.5
2019-Jun-08 12:00N 53°32' E 009°53'3 5.0
2019-Jun-08 11:30N 53°33' E 009°49'2 4.9
2019-Jun-08 11:01N 53°34' E 009°45'1 2.7
2019-Jun-08 10:30N 53°34' E 009°43'4 7.5
2019-Jun-08 10:00N 53°33' E 009°49'3 6.6
2019-Jun-08 09:30N 53°33' E 009°54'3 5.5
2019-Jun-08 09:01N 53°33' E 009°59'0 0.0
2019-Jun-08 08:31N 53°33' E 009°59'0 0.0
2019-Jun-08 08:00N 53°33' E 009°59'0 0.0
2019-Jun-08 07:31N 53°33' E 009°59'0 0.0
2019-Jun-08 07:00N 53°33' E 009°59'0 0.0
2019-Jun-08 06:30N 53°33' E 009°59'0 0.1
2019-Jun-08 06:00N 53°33' E 009°59'0 0.0
2019-Jun-08 05:30N 53°33' E 009°59'0 0.0
2019-Jun-08 05:00N 53°33' E 009°59'0 0.0
2019-Jun-08 04:30N 53°33' E 009°59'0 0.0
2019-Jun-08 04:00N 53°33' E 009°59'0 0.0
2019-Jun-08 03:30N 53°33' E 009°59'0 0.0
2019-Jun-08 03:00N 53°33' E 009°59'0 0.0
2019-Jun-08 02:30N 53°33' E 009°59'0 0.0
2019-Jun-08 02:00N 53°33' E 009°59'0 0.0
2019-Jun-08 01:30N 53°33' E 009°59'0 0.0
2019-Jun-08 01:00N 53°33' E 009°59'0 0.0
2019-Jun-08 00:30N 53°33' E 009°59'0 0.0
2019-Jun-08 00:00N 53°33' E 009°59'0 0.0
2019-Jun-07 23:30N 53°33' E 009°59'0 0.0
2019-Jun-07 23:00N 53°33' E 009°59'0 0.0
2019-Jun-07 22:30N 53°33' E 009°59'0 0.0
2019-Jun-07 22:00N 53°33' E 009°59'0 0.0
2019-Jun-07 21:30N 53°33' E 009°59'0 0.0
2019-Jun-07 21:00N 53°33' E 009°59'0 0.0
2019-Jun-07 20:30N 53°33' E 009°59'0 0.0
2019-Jun-07 20:00N 53°33' E 009°59'0 0.0
2019-Jun-07 19:30N 53°33' E 009°59'0 0.0
2019-Jun-07 19:00N 53°33' E 009°59'0 0.0
2019-Jun-07 18:30N 53°33' E 009°59'0 0.0
2019-Jun-07 18:00N 53°33' E 009°59'0 0.0
2019-Jun-07 17:30N 53°33' E 009°59'0 0.0
2019-Jun-07 17:00N 53°33' E 009°59'0 0.0
2019-Jun-07 16:30N 53°33' E 009°59'0 0.0
2019-Jun-07 16:00N 53°33' E 009°59'0 0.0
2019-Jun-07 15:30N 53°33' E 009°59'0 0.1
2019-Jun-07 15:00N 53°33' E 009°59'1 2.5
2019-Jun-07 14:30N 53°33' E 009°57'4 8.2
2019-Jun-07 14:00N 53°33' E 009°50'4 8.4
2019-Jun-07 13:30N 53°34' E 009°43'2 3.7
2019-Jun-07 13:00N 53°34' E 009°40'2 4.7
2019-Jun-07 12:31N 53°34' E 009°44'3 5.9
2019-Jun-07 12:00N 53°33' E 009°49'3 5.2
2019-Jun-07 11:30N 53°33' E 009°53'2 4.8
2019-Jun-07 11:00N 53°33' E 009°57'1 2.3
2019-Jun-07 10:30N 53°33' E 009°59'0 0.1
2019-Jun-07 09:58N 53°33' E 009°59'0 0.0
2019-Jun-07 09:28N 53°33' E 009°59'0 0.0
2019-Jun-07 08:58N 53°33' E 009°59'0 0.0
2019-Jun-07 08:28N 53°33' E 009°59'0 0.0
2019-Jun-07 07:58N 53°33' E 009°59'0 0.1
2019-Jun-07 07:28N 53°33' E 009°59'0 0.0
2019-Jun-07 06:58N 53°33' E 009°59'0 0.0
2019-Jun-07 06:28N 53°33' E 009°59'0 0.0
2019-Jun-07 05:58N 53°33' E 009°59'0 0.0
2019-Jun-07 05:28N 53°33' E 009°59'0 0.0
2019-Jun-07 04:58N 53°33' E 009°59'0 0.0
2019-Jun-07 04:28N 53°33' E 009°59'0 0.0
2019-Jun-07 03:58N 53°33' E 009°59'0 0.0
2019-Jun-07 03:28N 53°33' E 009°59'0 0.0
2019-Jun-07 02:58N 53°33' E 009°59'0 0.0
2019-Jun-07 02:28N 53°33' E 009°59'0 0.0
2019-Jun-07 01:58N 53°33' E 009°59'0 0.0
2019-Jun-07 01:28N 53°33' E 009°59'0 0.0
2019-Jun-07 00:58N 53°33' E 009°59'0 0.0
2019-Jun-07 00:28N 53°33' E 009°59'0 0.0
2019-Jun-06 23:58N 53°33' E 009°59'0 0.0
2019-Jun-06 23:28N 53°33' E 009°59'0 0.0
2019-Jun-06 22:58N 53°33' E 009°59'0 0.0
2019-Jun-06 22:28N 53°33' E 009°59'0 0.0
2019-Jun-06 21:58N 53°33' E 009°59'0 0.0
2019-Jun-06 21:28N 53°33' E 009°59'0 0.0
2019-Jun-06 20:58N 53°33' E 009°59'0 0.0
2019-Jun-06 20:28N 53°33' E 009°59'0 0.0
2019-Jun-06 19:58N 53°33' E 009°59'0 0.0
2019-Jun-06 19:28N 53°33' E 009°59'0 0.0
2019-Jun-06 18:58N 53°33' E 009°59'0 0.0
2019-Jun-06 18:28N 53°33' E 009°59'0 0.0
2019-Jun-06 17:58N 53°33' E 009°59'0 0.0
2019-Jun-06 17:28N 53°33' E 009°59'0 0.0
2019-Jun-06 16:58N 53°33' E 009°59'0 0.0
2019-Jun-06 16:28N 53°33' E 009°59'0 0.0
2019-Jun-06 15:58N 53°33' E 009°59'0 0.0
2019-Jun-06 15:28N 53°33' E 009°59'0 0.0
2019-Jun-06 14:58N 53°33' E 009°59'0 0.0
2019-Jun-06 14:28N 53°33' E 009°59'0 0.0
2019-Jun-06 13:58N 53°33' E 009°59'0 0.0
2019-Jun-06 13:28N 53°33' E 009°59'0 0.0
2019-Jun-06 12:58N 53°33' E 009°59'0 0.0
2019-Jun-06 12:28N 53°33' E 009°59'0 0.0
2019-Jun-06 11:58N 53°33' E 009°59'0 0.0
2019-Jun-06 11:28N 53°33' E 009°59'0 0.0
2019-Jun-06 10:58N 53°33' E 009°59'0 0.0
2019-Jun-06 10:28N 53°33' E 009°59'0 0.0
2019-Jun-06 09:58N 53°33' E 009°59'0 0.0
2019-Jun-06 09:28N 53°33' E 009°59'0 0.0
2019-Jun-06 08:58N 53°33' E 009°59'0 0.0
2019-Jun-06 08:28N 53°33' E 009°59'0 0.0
2019-Jun-06 07:58N 53°33' E 009°59'0 0.0
2019-Jun-06 07:28N 53°33' E 009°59'0 0.0
2019-Jun-06 06:58N 53°33' E 009°59'0 0.0
2019-Jun-06 06:28N 53°33' E 009°59'0 0.0
2019-Jun-06 05:58N 53°33' E 009°59'0 0.0
2019-Jun-06 05:28N 53°33' E 009°59'0 0.0
2019-Jun-06 04:58N 53°33' E 009°59'0 0.0
2019-Jun-06 04:28N 53°33' E 009°59'0 0.0
2019-Jun-06 03:58N 53°33' E 009°59'0 0.0
2019-Jun-06 03:28N 53°33' E 009°59'0 0.0
2019-Jun-06 02:58N 53°33' E 009°59'0 0.0
2019-Jun-06 02:28N 53°33' E 009°59'0 0.0
2019-Jun-06 01:58N 53°33' E 009°59'0 0.0
2019-Jun-06 01:28N 53°33' E 009°59'0 0.0
2019-Jun-06 00:58N 53°33' E 009°59'0 0.0
2019-Jun-06 00:28N 53°33' E 009°59'0 0.0
2019-Jun-05 23:58N 53°33' E 009°59'0 0.0
2019-Jun-05 23:28N 53°33' E 009°59'0 0.0
2019-Jun-05 22:58N 53°33' E 009°59'  
Track history (hours):
 
Tides and Currents Weather Stations Pressure Air Temp Water Temp Dewpoint Dewpoint Depression Visibility Wind Speed Wind Dir Waves Ship Positions

Mare Frisium (Netherlands)

Ship's website: http://www.tallship-company.com/mare-frisium-2/

Last reported at 2019-Jun-15 22:30 UTC. Time now 2019-Jun-15 22:35 UTC.
Position N 53°33' E 009°59'.

Length 50 m; draft 2.8 m.

Type: Sailing vessel. MMSI: 244596000.

Date/timePositionNaut miles runAvg speedWind from/ knotsBaromVisibWave heightAir tempDewpointWater temp
2019-Jun-15 22:30N 53°33' E 009°59'0 0.0
2019-Jun-15 22:00N 53°33' E 009°59'0 0.0
2019-Jun-15 21:30N 53°33' E 009°59'0 0.0
2019-Jun-15 21:00N 53°33' E 009°59'0 0.0
2019-Jun-15 20:30N 53°33' E 009°59'0 0.0
2019-Jun-15 20:00N 53°33' E 009°59'0 0.0
2019-Jun-15 19:30N 53°33' E 009°59'0 0.0
2019-Jun-15 19:00N 53°33' E 009°59'0 0.0
2019-Jun-15 18:30N 53°33' E 009°59'0 0.0
2019-Jun-15 18:00N 53°33' E 009°59'0 0.0
2019-Jun-15 17:30N 53°33' E 009°59'0 0.0
2019-Jun-15 17:00N 53°33' E 009°59'0 0.0
2019-Jun-15 16:30N 53°33' E 009°59'0 0.0
2019-Jun-15 16:00N 53°33' E 009°59'0 0.0
2019-Jun-15 15:30N 53°33' E 009°59'0 0.0
2019-Jun-15 15:00N 53°33' E 009°59'0 0.0
2019-Jun-15 14:30N 53°33' E 009°59'0 0.0
2019-Jun-15 14:00N 53°33' E 009°59'0 0.0
2019-Jun-15 13:30N 53°33' E 009°59'0 0.0
2019-Jun-15 13:00N 53°33' E 009°59'0 0.0
2019-Jun-15 12:30N 53°33' E 009°59'0 0.0
2019-Jun-15 12:00N 53°33' E 009°59'0 0.0
2019-Jun-15 11:30N 53°33' E 009°59'0 0.0
2019-Jun-15 11:00N 53°33' E 009°59'0 0.0
2019-Jun-15 10:30N 53°33' E 009°59'0 0.0
2019-Jun-15 10:00N 53°33' E 009°59'0 0.0
2019-Jun-15 09:30N 53°33' E 009°59'0 0.0
2019-Jun-15 09:00N 53°33' E 009°59'0 0.0
2019-Jun-15 08:30N 53°33' E 009°59'0 0.0
2019-Jun-15 08:00N 53°33' E 009°59'0 0.0
2019-Jun-15 07:30N 53°33' E 009°59'0 0.0
2019-Jun-15 07:00N 53°33' E 009°59'0 0.0
2019-Jun-15 06:30N 53°33' E 009°59'0 0.0
2019-Jun-15 06:00N 53°33' E 009°59'0 0.0
2019-Jun-15 05:30N 53°33' E 009°59'0 0.0
2019-Jun-15 05:00N 53°33' E 009°59'0 0.0
2019-Jun-15 04:30N 53°33' E 009°59'0 0.0
2019-Jun-15 04:00N 53°33' E 009°59'0 0.0
2019-Jun-15 03:30N 53°33' E 009°59'0 0.0
2019-Jun-15 03:00N 53°33' E 009°59'0 0.0
2019-Jun-15 02:30N 53°33' E 009°59'0 0.0
2019-Jun-15 02:00N 53°33' E 009°59'0 0.0
2019-Jun-15 01:30N 53°33' E 009°59'0 0.0
2019-Jun-15 01:00N 53°33' E 009°59'0 0.0
2019-Jun-15 00:30N 53°33' E 009°59'0 0.0
2019-Jun-15 00:00N 53°33' E 009°59'0 0.0
2019-Jun-14 23:30N 53°33' E 009°59'0 0.0
2019-Jun-14 23:00N 53°33' E 009°59'0 0.0
2019-Jun-14 22:30N 53°33' E 009°59'0 0.0
2019-Jun-14 22:00N 53°33' E 009°59'0 0.1
2019-Jun-14 21:31N 53°33' E 009°59'0 0.1
2019-Jun-14 21:00N 53°33' E 009°59'1 2.5
2019-Jun-14 20:30N 53°33' E 009°57'3 6.2
2019-Jun-14 20:00N 53°33' E 009°52'3 5.9
2019-Jun-14 19:30N 53°33' E 009°47'3 5.0
2019-Jun-14 19:00N 53°34' E 009°43'2 3.4
2019-Jun-14 18:30N 53°34' E 009°45'2 5.0
2019-Jun-14 18:00N 53°33' E 009°50'2 4.5
2019-Jun-14 17:30N 53°33' E 009°53'2 4.6
2019-Jun-14 17:00N 53°33' E 009°57'1 2.1
2019-Jun-14 16:30N 53°32' E 009°59'0 0.3
2019-Jun-14 16:00N 53°33' E 009°59'0 0.0
2019-Jun-14 15:31N 53°33' E 009°59'0 0.0
2019-Jun-14 15:00N 53°33' E 009°59'0 0.0
2019-Jun-14 14:31N 53°33' E 009°59'0 0.0
2019-Jun-14 14:01N 53°33' E 009°59'1 1.4
2019-Jun-14 13:30N 53°33' E 009°58'3 5.8
2019-Jun-14 13:00N 53°32' E 009°53'3 6.9
2019-Jun-14 12:30N 53°33' E 009°47'2 4.9
2019-Jun-14 12:00N 53°34' E 009°43'2 3.5
2019-Jun-14 11:30N 53°34' E 009°46'3 5.1
2019-Jun-14 11:00N 53°33' E 009°50'2 4.3
2019-Jun-14 10:30N 53°33' E 009°54'2 4.3
2019-Jun-14 10:00N 53°33' E 009°57'1 1.7
2019-Jun-14 09:30N 53°32' E 009°59'0 0.1
2019-Jun-14 09:00N 53°33' E 009°59'0 0.0
2019-Jun-14 08:30N 53°33' E 009°59'0 0.0
2019-Jun-14 08:00N 53°33' E 009°59'0 0.0
2019-Jun-14 07:30N 53°33' E 009°59'0 0.2
2019-Jun-14 07:00N 53°33' E 009°59'0 0.0
2019-Jun-14 06:30N 53°33' E 009°59'0 0.0
2019-Jun-14 06:00N 53°33' E 009°59'0 0.0
2019-Jun-14 05:30N 53°33' E 009°59'0 0.0
2019-Jun-14 05:00N 53°33' E 009°59'0 0.0
2019-Jun-14 04:30N 53°33' E 009°59'0 0.0
2019-Jun-14 04:00N 53°33' E 009°59'0 0.0
2019-Jun-14 03:30N 53°33' E 009°59'0 0.0
2019-Jun-14 03:00N 53°33' E 009°59'0 0.0
2019-Jun-14 02:30N 53°33' E 009°59'0 0.0
2019-Jun-14 02:00N 53°33' E 009°59'0 0.0
2019-Jun-14 01:30N 53°33' E 009°59'0 0.0
2019-Jun-14 01:00N 53°33' E 009°59'0 0.0
2019-Jun-14 00:30N 53°33' E 009°59'0 0.0
2019-Jun-14 00:00N 53°33' E 009°59'0 0.0
2019-Jun-13 23:30N 53°33' E 009°59'0 0.0
2019-Jun-13 23:00N 53°33' E 009°59'0 0.0
2019-Jun-13 22:30N 53°33' E 009°59'0 0.0
2019-Jun-13 22:00N 53°33' E 009°59'0 0.2
2019-Jun-13 21:31N 53°33' E 009°59'0 0.0
2019-Jun-13 21:01N 53°33' E 009°59'0 0.0
2019-Jun-13 20:31N 53°33' E 009°59'2 3.6
2019-Jun-13 20:01N 53°32' E 009°56'4 8.2
2019-Jun-13 19:31N 53°33' E 009°49'3 5.5
2019-Jun-13 19:01N 53°34' E 009°45'2 4.3
2019-Jun-13 18:30N 53°34' E 009°41'1 1.7
2019-Jun-13 18:00N 53°34' E 009°40'3 6.4
2019-Jun-13 17:31N 53°34' E 009°45'3 6.4
2019-Jun-13 17:01N 53°33' E 009°50'3 6.6
2019-Jun-13 16:31N 53°33' E 009°56'2 3.5
2019-Jun-13 15:59N 53°33' E 009°59'0 0.0
2019-Jun-13 15:29N 53°33' E 009°59'0 0.0
2019-Jun-13 14:59N 53°33' E 009°59'0 0.0
2019-Jun-13 14:29N 53°33' E 009°59'0 0.0
2019-Jun-13 13:59N 53°33' E 009°59'0 0.1
2019-Jun-13 13:29N 53°33' E 009°59'0 0.0
2019-Jun-13 12:59N 53°33' E 009°59'0 0.0
2019-Jun-13 12:29N 53°33' E 009°59'0 0.0
2019-Jun-13 11:59N 53°33' E 009°59'0 0.0
2019-Jun-13 11:29N 53°33' E 009°59'0 0.0
2019-Jun-13 10:59N 53°33' E 009°59'0 0.0
2019-Jun-13 10:29N 53°33' E 009°59'0 0.0
2019-Jun-13 09:59N 53°33' E 009°59'0 0.0
2019-Jun-13 09:29N 53°33' E 009°59'0 0.0
2019-Jun-13 08:59N 53°33' E 009°59'0 0.0
2019-Jun-13 08:29N 53°33' E 009°59'0 0.0
2019-Jun-13 07:59N 53°33' E 009°59'0 0.0
2019-Jun-13 07:29N 53°33' E 009°59'0 0.0
2019-Jun-13 06:59N 53°33' E 009°59'0 0.0
2019-Jun-13 06:29N 53°33' E 009°59'0 0.0
2019-Jun-13 05:59N 53°33' E 009°59'0 0.0
2019-Jun-13 05:29N 53°33' E 009°59'0 0.0
2019-Jun-13 04:59N 53°33' E 009°59'0 0.0
2019-Jun-13 04:29N 53°33' E 009°59'0 0.0
2019-Jun-13 03:59N 53°33' E 009°59'0 0.0
2019-Jun-13 03:29N 53°33' E 009°59'0 0.0
2019-Jun-13 02:59N 53°33' E 009°59'0 0.0
2019-Jun-13 02:29N 53°33' E 009°59'0 0.0
2019-Jun-13 01:59N 53°33' E 009°59'0 0.0
2019-Jun-13 01:29N 53°33' E 009°59'0 0.0
2019-Jun-13 00:59N 53°33' E 009°59'0 0.0
2019-Jun-13 00:29N 53°33' E 009°59'0 0.0
2019-Jun-12 23:59N 53°33' E 009°59'0 0.0
2019-Jun-12 23:29N 53°33' E 009°59'0 0.0
2019-Jun-12 22:59N 53°33' E 009°59'0 0.0
2019-Jun-12 22:29N 53°33' E 009°59'0 0.0
2019-Jun-12 21:59N 53°33' E 009°59'0 0.0
2019-Jun-12 21:29N 53°33' E 009°59'0 0.0
2019-Jun-12 20:59N 53°33' E 009°59'0 0.0
2019-Jun-12 20:29N 53°33' E 009°59'0 0.0
2019-Jun-12 19:59N 53°33' E 009°59'0 0.0
2019-Jun-12 19:29N 53°33' E 009°59'0 0.0
2019-Jun-12 18:59N 53°33' E 009°59'0 0.0
2019-Jun-12 18:29N 53°33' E 009°59'0 0.0
2019-Jun-12 17:59N 53°33' E 009°59'0 0.0
2019-Jun-12 17:29N 53°33' E 009°59'0 0.0
2019-Jun-12 16:59N 53°33' E 009°59'0 0.0
2019-Jun-12 16:29N 53°33' E 009°59'0 0.0
2019-Jun-12 15:59N 53°33' E 009°59'0 0.0
2019-Jun-12 15:29N 53°33' E 009°59'0 0.0
2019-Jun-12 14:59N 53°33' E 009°59'0 0.0
2019-Jun-12 14:29N 53°33' E 009°59'0 0.0
2019-Jun-12 13:59N 53°33' E 009°59'0 0.0
2019-Jun-12 13:29N 53°33' E 009°59'0 0.0
2019-Jun-12 12:59N 53°33' E 009°59'0 0.0
2019-Jun-12 12:29N 53°33' E 009°59'0 0.0
2019-Jun-12 11:59N 53°33' E 009°59'0 0.0
2019-Jun-12 11:29N 53°33' E 009°59'0 0.0
2019-Jun-12 10:59N 53°33' E 009°59'0 0.0
2019-Jun-12 10:29N 53°33' E 009°59'0 0.0
2019-Jun-12 09:59N 53°33' E 009°59'0 0.0
2019-Jun-12 09:29N 53°33' E 009°59'0 0.0
2019-Jun-12 08:59N 53°33' E 009°59'0 0.0
2019-Jun-12 08:26N 53°33' E 009°59'0 0.0
2019-Jun-12 07:59N 53°33' E 009°59'0 0.0
2019-Jun-12 07:29N 53°33' E 009°59'0 0.0
2019-Jun-12 06:59N 53°33' E 009°59'0 0.0
2019-Jun-12 06:29N 53°33' E 009°59'0 0.0
2019-Jun-12 05:59N 53°33' E 009°59'0 0.0
2019-Jun-12 05:28N 53°33' E 009°59'0 0.0
2019-Jun-12 04:58N 53°33' E 009°59'0 0.0
2019-Jun-12 04:28N 53°33' E 009°59'0 0.0
2019-Jun-12 03:58N 53°33' E 009°59'0 0.0
2019-Jun-12 03:28N 53°33' E 009°59'0 0.0
2019-Jun-12 02:58N 53°33' E 009°59'0 0.0
2019-Jun-12 02:28N 53°33' E 009°59'0 0.0
2019-Jun-12 01:28N 53°33' E 009°59'0 0.0
2019-Jun-12 00:58N 53°33' E 009°59'0 0.0
2019-Jun-12 00:28N 53°33' E 009°59'0 0.0
2019-Jun-11 23:58N 53°33' E 009°59'0 0.0
2019-Jun-11 23:28N 53°33' E 009°59'0 0.0
2019-Jun-11 22:58N 53°33' E 009°59'0 0.0
2019-Jun-11 22:28N 53°33' E 009°59'0 0.0
2019-Jun-11 21:58N 53°33' E 009°59'0 0.0
2019-Jun-11 21:28N 53°33' E 009°59'0 0.0
2019-Jun-11 20:58N 53°33' E 009°59'0 0.0
2019-Jun-11 20:28N 53°33' E 009°59'0 0.0
2019-Jun-11 19:58N 53°33' E 009°59'0 0.0
2019-Jun-11 19:28N 53°33' E 009°59'0 0.0
2019-Jun-11 18:58N 53°33' E 009°59'0 0.0
2019-Jun-11 18:28N 53°33' E 009°59'0 0.0
2019-Jun-11 17:58N 53°33' E 009°59'0 0.0
2019-Jun-11 17:28N 53°33' E 009°59'0 0.0
2019-Jun-11 16:58N 53°33' E 009°59'0 0.0
2019-Jun-11 16:28N 53°33' E 009°59'0 0.0
2019-Jun-11 15:58N 53°33' E 009°59'0 0.0
2019-Jun-11 15:28N 53°33' E 009°59'0 0.0
2019-Jun-11 14:58N 53°33' E 009°59'0 0.0
2019-Jun-11 14:28N 53°33' E 009°59'0 0.0
2019-Jun-11 13:58N 53°33' E 009°59'0 0.0
2019-Jun-11 13:28N 53°33' E 009°59'0 0.0
2019-Jun-11 12:58N 53°33' E 009°59'0 0.0
2019-Jun-11 12:28N 53°33' E 009°59'0 0.0
2019-Jun-11 11:58N 53°33' E 009°59'0 0.0
2019-Jun-11 11:28N 53°33' E 009°59'0 0.0
2019-Jun-11 10:58N 53°33' E 009°59'0 0.0
2019-Jun-11 10:28N 53°33' E 009°59'0 0.0
2019-Jun-11 09:58N 53°33' E 009°59'0 0.0
2019-Jun-11 09:28N 53°33' E 009°59'0 0.0
2019-Jun-11 08:58N 53°33' E 009°59'0 0.0
2019-Jun-11 08:28N 53°33' E 009°59'0 0.0
2019-Jun-11 07:58N 53°33' E 009°59'0 0.0
2019-Jun-11 07:28N 53°33' E 009°59'0 0.0
2019-Jun-11 06:58N 53°33' E 009°59'0 0.0
2019-Jun-11 06:28N 53°33' E 009°59'0 0.0
2019-Jun-11 05:58N 53°33' E 009°59'0 0.0
2019-Jun-11 05:28N 53°33' E 009°59'0 0.0
2019-Jun-11 04:58N 53°33' E 009°59'0 0.0
2019-Jun-11 04:28N 53°33' E 009°59'0 0.0
2019-Jun-11 03:58N 53°33' E 009°59'0 0.0
2019-Jun-11 03:28N 53°33' E 009°59'0 0.0
2019-Jun-11 02:58N 53°33' E 009°59'0 0.0
2019-Jun-11 02:28N 53°33' E 009°59'0 0.0
2019-Jun-11 01:58N 53°33' E 009°59'0 0.0
2019-Jun-11 01:28N 53°33' E 009°59'0 0.0
2019-Jun-11 00:58N 53°33' E 009°59'0 0.0
2019-Jun-11 00:28N 53°33' E 009°59'0 0.0
2019-Jun-10 23:58N 53°33' E 009°59'0 0.0
2019-Jun-10 23:28N 53°33' E 009°59'0 0.0
2019-Jun-10 22:58N 53°33' E 009°59'0 0.0
2019-Jun-10 22:28N 53°33' E 009°59'0 0.0
2019-Jun-10 21:58N 53°33' E 009°59'0 0.0
2019-Jun-10 21:28N 53°33' E 009°59'0 0.0
2019-Jun-10 20:58N 53°33' E 009°59'0 0.0
2019-Jun-10 20:28N 53°33' E 009°59'0 0.0
2019-Jun-10 19:58N 53°33' E 009°59'0 0.0
2019-Jun-10 19:28N 53°33' E 009°59'0 0.0
2019-Jun-10 18:58N 53°33' E 009°59'0 0.0
2019-Jun-10 18:28N 53°33' E 009°59'0 0.0
2019-Jun-10 17:58N 53°33' E 009°59'0 0.0
2019-Jun-10 17:28N 53°33' E 009°59'0 0.0
2019-Jun-10 16:58N 53°33' E 009°59'0 0.0
2019-Jun-10 16:28N 53°33' E 009°59'0 0.0
2019-Jun-10 15:58N 53°33' E 009°59'0 0.0
2019-Jun-10 15:28N 53°33' E 009°59'0 0.0
2019-Jun-10 14:58N 53°33' E 009°59'0 0.0
2019-Jun-10 14:28N 53°33' E 009°59'0 0.0
2019-Jun-10 13:58N 53°33' E 009°59'0 0.0
2019-Jun-10 13:30N 53°33' E 009°59'0 0.2
2019-Jun-10 13:00N 53°33' E 009°59'3 5.5
2019-Jun-10 12:30N 53°32' E 009°54'2 4.8
2019-Jun-10 12:00N 53°33' E 009°50'2 4.3
2019-Jun-10 11:30N 53°33' E 009°47'1 2.9
2019-Jun-10 11:00N 53°34' E 009°44'3 5.4
2019-Jun-10 10:30N 53°33' E 009°49'2 4.9
2019-Jun-10 10:00N 53°33' E 009°53'2 4.3
2019-Jun-10 09:30N 53°33' E 009°56'2 3.0
2019-Jun-10 08:58N 53°33' E 009°59'0 0.0
2019-Jun-10 08:25N 53°33' E 009°59'0 0.0
2019-Jun-10 07:58N 53°33' E 009°59'0 0.0
2019-Jun-10 07:28N 53°33' E 009°59'0 0.0
2019-Jun-10 06:58N 53°33' E 009°59'0 0.0
2019-Jun-10 06:28N 53°33' E 009°59'0 0.0
2019-Jun-10 05:58N 53°33' E 009°59'0 0.0
2019-Jun-10 05:28N 53°33' E 009°59'0 0.0
2019-Jun-10 04:58N 53°33' E 009°59'0 0.0
2019-Jun-10 04:28N 53°33' E 009°59'0 0.0
2019-Jun-10 03:58N 53°33' E 009°59'0 0.0
2019-Jun-10 03:28N 53°33' E 009°59'0 0.0
2019-Jun-10 02:58N 53°33' E 009°59'0 0.0
2019-Jun-10 02:28N 53°33' E 009°59'0 0.0
2019-Jun-10 01:58N 53°33' E 009°59'0 0.0
2019-Jun-10 01:28N 53°33' E 009°59'0 0.0
2019-Jun-10 00:58N 53°33' E 009°59'0 0.0
2019-Jun-10 00:28N 53°33' E 009°59'0 0.0
2019-Jun-09 23:58N 53°33' E 009°59'0 0.0
2019-Jun-09 23:28N 53°33' E 009°59'0 0.0
2019-Jun-09 22:58N 53°33' E 009°59'0 0.0
2019-Jun-09 22:28N 53°33' E 009°59'0 0.0
2019-Jun-09 21:58N 53°33' E 009°59'1 2.1
2019-Jun-09 21:30N 53°33' E 009°57'3 5.6
2019-Jun-09 21:00N 53°33' E 009°53'3 5.5
2019-Jun-09 20:30N 53°33' E 009°48'3 6.0
2019-Jun-09 20:00N 53°34' E 009°43'3 6.9
2019-Jun-09 19:30N 53°35' E 009°38'1 1.5
2019-Jun-09 19:00N 53°34' E 009°39'2 4.2
2019-Jun-09 18:30N 53°34' E 009°42'2 4.1
2019-Jun-09 18:00N 53°34' E 009°46'2 3.8
2019-Jun-09 17:30N 53°33' E 009°49'2 3.8
2019-Jun-09 17:00N 53°33' E 009°52'2 3.6
2019-Jun-09 16:30N 53°33' E 009°55'2 4.4
2019-Jun-09 16:00N 53°33' E 009°58'0 0.5
2019-Jun-09 15:28N 53°33' E 009°59'0 0.0
2019-Jun-09 14:58N 53°33' E 009°59'0 0.0
2019-Jun-09 14:28N 53°33' E 009°59'0 0.0
2019-Jun-09 13:58N 53°33' E 009°59'0 0.0
2019-Jun-09 13:28N 53°33' E 009°59'0 0.0
2019-Jun-09 12:58N 53°33' E 009°59'1 3.1
2019-Jun-09 12:30N 53°32' E 009°56'2 5.0
2019-Jun-09 12:00N 53°33' E 009°52'2 4.3
2019-Jun-09 11:30N 53°33' E 009°49'2 4.2
2019-Jun-09 11:00N 53°34' E 009°45'2 3.6
2019-Jun-09 10:31N 53°34' E 009°42'3 5.2
2019-Jun-09 10:00N 53°34' E 009°47'4 8.0
2019-Jun-09 09:30N 53°33' E 009°53'3 6.7
2019-Jun-09 09:01N 53°33' E 009°59'0 0.1
2019-Jun-09 08:28N 53°33' E 009°59'0 0.0
2019-Jun-09 07:58N 53°33' E 009°59'0 0.0
2019-Jun-09 07:28N 53°33' E 009°59'0 0.0
2019-Jun-09 06:58N 53°33' E 009°59'0 0.0
2019-Jun-09 06:28N 53°33' E 009°59'0 0.1
2019-Jun-09 05:58N 53°33' E 009°59'0 0.0
2019-Jun-09 05:28N 53°33' E 009°59'0 0.0
2019-Jun-09 04:58N 53°33' E 009°59'0 0.0
2019-Jun-09 03:58N 53°33' E 009°59'0 0.0
2019-Jun-09 03:28N 53°33' E 009°59'0 0.0
2019-Jun-09 02:58N 53°33' E 009°59'0 0.0
2019-Jun-09 02:28N 53°33' E 009°59'0 0.0
2019-Jun-09 01:58N 53°33' E 009°59'0 0.0
2019-Jun-09 01:28N 53°33' E 009°59'0 0.0
2019-Jun-09 00:58N 53°33' E 009°59'0 0.0
2019-Jun-09 00:28N 53°33' E 009°59'0 0.0
2019-Jun-08 23:58N 53°33' E 009°59'0 0.0
2019-Jun-08 23:28N 53°33' E 009°59'0 0.0
2019-Jun-08 22:58N 53°33' E 009°59'0 0.0
2019-Jun-08 22:28N 53°33' E 009°59'0 0.0
2019-Jun-08 21:58N 53°33' E 009°59'0 0.0
2019-Jun-08 21:28N 53°33' E 009°59'0 0.0
2019-Jun-08 20:58N 53°33' E 009°59'0 0.0
2019-Jun-08 20:28N 53°33' E 009°59'0 0.0
2019-Jun-08 19:58N 53°33' E 009°59'0 0.0
2019-Jun-08 19:28N 53°33' E 009°59'0 0.0
2019-Jun-08 19:00N 53°33' E 009°59'0 0.0
2019-Jun-08 18:31N 53°33' E 009°59'0 0.0
2019-Jun-08 18:01N 53°33' E 009°59'0 0.0
2019-Jun-08 17:31N 53°33' E 009°59'0 0.0
2019-Jun-08 17:01N 53°33' E 009°59'0 0.0
2019-Jun-08 16:30N 53°33' E 009°59'0 0.0
2019-Jun-08 16:00N 53°33' E 009°59'0 0.0
2019-Jun-08 15:30N 53°33' E 009°59'0 0.0
2019-Jun-08 15:00N 53°33' E 009°59'0 0.0
2019-Jun-08 14:31N 53°33' E 009°59'0 0.0
2019-Jun-08 14:01N 53°33' E 009°59'0 0.0
2019-Jun-08 13:31N 53°33' E 009°59'0 0.3
2019-Jun-08 13:00N 53°33' E 009°59'1 1.7
2019-Jun-08 12:30N 53°33' E 009°58'3 5.5
2019-Jun-08 12:00N 53°32' E 009°53'3 5.0
2019-Jun-08 11:30N 53°33' E 009°49'2 4.9
2019-Jun-08 11:01N 53°34' E 009°45'1 2.7
2019-Jun-08 10:30N 53°34' E 009°43'4 7.5
2019-Jun-08 10:00N 53°33' E 009°49'3 6.6
2019-Jun-08 09:30N 53°33' E 009°54'3 5.5
2019-Jun-08 09:01N 53°33' E 009°59'0 0.0
2019-Jun-08 08:31N 53°33' E 009°59'0 0.0
2019-Jun-08 08:00N 53°33' E 009°59'0 0.0
2019-Jun-08 07:31N 53°33' E 009°59'0 0.0
2019-Jun-08 07:00N 53°33' E 009°59'0 0.0
2019-Jun-08 06:30N 53°33' E 009°59'0 0.1
2019-Jun-08 06:00N 53°33' E 009°59'0 0.0
2019-Jun-08 05:30N 53°33' E 009°59'0 0.0
2019-Jun-08 05:00N 53°33' E 009°59'0 0.0
2019-Jun-08 04:30N 53°33' E 009°59'0 0.0
2019-Jun-08 04:00N 53°33' E 009°59'0 0.0
2019-Jun-08 03:30N 53°33' E 009°59'0 0.0
2019-Jun-08 03:00N 53°33' E 009°59'0 0.0
2019-Jun-08 02:30N 53°33' E 009°59'0 0.0
2019-Jun-08 02:00N 53°33' E 009°59'0 0.0
2019-Jun-08 01:30N 53°33' E 009°59'0 0.0
2019-Jun-08 01:00N 53°33' E 009°59'0 0.0
2019-Jun-08 00:30N 53°33' E 009°59'0 0.0
2019-Jun-08 00:00N 53°33' E 009°59'0 0.0
2019-Jun-07 23:30N 53°33' E 009°59'0 0.0
2019-Jun-07 23:00N 53°33' E 009°59'0 0.0
2019-Jun-07 22:30N 53°33' E 009°59'0 0.0
2019-Jun-07 22:00N 53°33' E 009°59'0 0.0
2019-Jun-07 21:30N 53°33' E 009°59'0 0.0
2019-Jun-07 21:00N 53°33' E 009°59'0 0.0
2019-Jun-07 20:30N 53°33' E 009°59'0 0.0
2019-Jun-07 20:00N 53°33' E 009°59'0 0.0
2019-Jun-07 19:30N 53°33' E 009°59'0 0.0
2019-Jun-07 19:00N 53°33' E 009°59'0 0.0
2019-Jun-07 18:30N 53°33' E 009°59'0 0.0
2019-Jun-07 18:00N 53°33' E 009°59'0 0.0
2019-Jun-07 17:30N 53°33' E 009°59'0 0.0
2019-Jun-07 17:00N 53°33' E 009°59'0 0.0
2019-Jun-07 16:30N 53°33' E 009°59'0 0.0
2019-Jun-07 16:00N 53°33' E 009°59'0 0.0
2019-Jun-07 15:30N 53°33' E 009°59'0 0.1
2019-Jun-07 15:00N 53°33' E 009°59'1 2.5
2019-Jun-07 14:30N 53°33' E 009°57'4 8.2
2019-Jun-07 14:00N 53°33' E 009°50'4 8.4
2019-Jun-07 13:30N 53°34' E 009°43'2 3.7
2019-Jun-07 13:00N 53°34' E 009°40'2 4.7
2019-Jun-07 12:31N 53°34' E 009°44'3 5.9
2019-Jun-07 12:00N 53°33' E 009°49'3 5.2
2019-Jun-07 11:30N 53°33' E 009°53'2 4.8
2019-Jun-07 11:00N 53°33' E 009°57'1 2.3
2019-Jun-07 10:30N 53°33' E 009°59'0 0.1
2019-Jun-07 09:58N 53°33' E 009°59'0 0.0
2019-Jun-07 09:28N 53°33' E 009°59'0 0.0
2019-Jun-07 08:58N 53°33' E 009°59'0 0.0
2019-Jun-07 08:28N 53°33' E 009°59'0 0.0
2019-Jun-07 07:58N 53°33' E 009°59'0 0.1
2019-Jun-07 07:28N 53°33' E 009°59'0 0.0
2019-Jun-07 06:58N 53°33' E 009°59'0 0.0
2019-Jun-07 06:28N 53°33' E 009°59'0 0.0
2019-Jun-07 05:58N 53°33' E 009°59'0 0.0
2019-Jun-07 05:28N 53°33' E 009°59'0 0.0
2019-Jun-07 04:58N 53°33' E 009°59'0 0.0
2019-Jun-07 04:28N 53°33' E 009°59'0 0.0
2019-Jun-07 03:58N 53°33' E 009°59'0 0.0
2019-Jun-07 03:28N 53°33' E 009°59'0 0.0
2019-Jun-07 02:58N 53°33' E 009°59'0 0.0
2019-Jun-07 02:28N 53°33' E 009°59'0 0.0
2019-Jun-07 01:58N 53°33' E 009°59'0 0.0
2019-Jun-07 01:28N 53°33' E 009°59'0 0.0
2019-Jun-07 00:58N 53°33' E 009°59'0 0.0
2019-Jun-07 00:28N 53°33' E 009°59'0 0.0
2019-Jun-06 23:58N 53°33' E 009°59'0 0.0
2019-Jun-06 23:28N 53°33' E 009°59'0 0.0
2019-Jun-06 22:58N 53°33' E 009°59'0 0.0
2019-Jun-06 22:28N 53°33' E 009°59'0 0.0
2019-Jun-06 21:58N 53°33' E 009°59'0 0.0
2019-Jun-06 21:28N 53°33' E 009°59'0 0.0
2019-Jun-06 20:58N 53°33' E 009°59'0 0.0
2019-Jun-06 20:28N 53°33' E 009°59'0 0.0
2019-Jun-06 19:58N 53°33' E 009°59'0 0.0
2019-Jun-06 19:28N 53°33' E 009°59'0 0.0
2019-Jun-06 18:58N 53°33' E 009°59'0 0.0
2019-Jun-06 18:28N 53°33' E 009°59'0 0.0
2019-Jun-06 17:58N 53°33' E 009°59'0 0.0
2019-Jun-06 17:28N 53°33' E 009°59'0 0.0
2019-Jun-06 16:58N 53°33' E 009°59'0 0.0
2019-Jun-06 16:28N 53°33' E 009°59'0 0.0
2019-Jun-06 15:58N 53°33' E 009°59'0 0.0
2019-Jun-06 15:28N 53°33' E 009°59'0 0.0
2019-Jun-06 14:58N 53°33' E 009°59'0 0.0
2019-Jun-06 14:28N 53°33' E 009°59'0 0.0
2019-Jun-06 13:58N 53°33' E 009°59'0 0.0
2019-Jun-06 13:28N 53°33' E 009°59'0 0.0
2019-Jun-06 12:58N 53°33' E 009°59'0 0.0
2019-Jun-06 12:28N 53°33' E 009°59'0 0.0
2019-Jun-06 11:58N 53°33' E 009°59'0 0.0
2019-Jun-06 11:28N 53°33' E 009°59'0 0.0
2019-Jun-06 10:58N 53°33' E 009°59'0 0.0
2019-Jun-06 10:28N 53°33' E 009°59'0 0.0
2019-Jun-06 09:58N 53°33' E 009°59'0 0.0
2019-Jun-06 09:28N 53°33' E 009°59'0 0.0
2019-Jun-06 08:58N 53°33' E 009°59'0 0.0
2019-Jun-06 08:28N 53°33' E 009°59'0 0.0
2019-Jun-06 07:58N 53°33' E 009°59'0 0.0
2019-Jun-06 07:28N 53°33' E 009°59'0 0.0
2019-Jun-06 06:58N 53°33' E 009°59'0 0.0
2019-Jun-06 06:28N 53°33' E 009°59'0 0.0
2019-Jun-06 05:58N 53°33' E 009°59'0 0.0
2019-Jun-06 05:28N 53°33' E 009°59'0 0.0
2019-Jun-06 04:58N 53°33' E 009°59'0 0.0
2019-Jun-06 04:28N 53°33' E 009°59'0 0.0
2019-Jun-06 03:58N 53°33' E 009°59'0 0.0
2019-Jun-06 03:28N 53°33' E 009°59'0 0.0
2019-Jun-06 02:58N 53°33' E 009°59'0 0.0
2019-Jun-06 02:28N 53°33' E 009°59'0 0.0
2019-Jun-06 01:58N 53°33' E 009°59'0 0.0
2019-Jun-06 01:28N 53°33' E 009°59'0 0.0
2019-Jun-06 00:58N 53°33' E 009°59'0 0.0
2019-Jun-06 00:28N 53°33' E 009°59'0 0.0
2019-Jun-05 23:58N 53°33' E 009°59'0 0.0
2019-Jun-05 23:28N 53°33' E 009°59'0 0.0
2019-Jun-05 22:58N 53°33' E 009°59'  

Dump ship's entire track history